DW5978 Whyalla SA AU current weather conditions

sailwx.info

Wind from 165 at 4 knots gusting 7

Air temperature 20.0° C
Dewpoint 13.7° C

Last reported at 2017-Jan-20 12:40 UTC.
Time now 2017-Jan-20 13:58 UTC

Location: S 33°01' E 137°32'.
View on Google Maps.

See reports from other nearby stations

  
Tides and Currents Weather Stations Pressure Air Temp Water Temp Dewpoint Dewpoint Depression Visibility Wind Speed Wind Dir Waves Ship Positions
date/time (UTC)wind fromknots sea level pressurealtimeterstation pressurevisibilityair tempwater tempwave heightnotes
2017-Jan-20 12:40 165 4 gusting 7 20.0
2017-Jan-20 12:25 160 4 gusting 10 20.0
2017-Jan-20 12:10 150 4 gusting 7 20.0
2017-Jan-20 11:55 167 3 gusting 7 20.0
2017-Jan-20 11:40 141 6 gusting 12 20.0
2017-Jan-20 11:25 207 5 gusting 10 20.0
2017-Jan-20 11:10 226 4 gusting 12 20.0
2017-Jan-20 10:56 204 5 gusting 13 20.0
2017-Jan-20 10:39 201 6 gusting 13 20.0
2017-Jan-20 10:24 183 6 gusting 13 20.0
2017-Jan-20 10:09 207 9 gusting 15 20.6
2017-Jan-20 09:55 172 7 gusting 13 20.6
2017-Jan-20 09:40 162 8 gusting 15 21.1
2017-Jan-20 09:25 199 8 gusting 18 21.7
2017-Jan-20 09:10 177 7 gusting 18 21.7
2017-Jan-20 08:55 203 6 gusting 13 22.2
2017-Jan-20 08:40 201 9 gusting 18 22.2
2017-Jan-20 08:25 195 7 gusting 17 22.2
2017-Jan-20 08:09 181 10 gusting 15 22.2
2017-Jan-20 07:54 186 7 gusting 19 22.2
2017-Jan-20 07:39 162 7 gusting 19 22.8
2017-Jan-20 07:24 150 10 gusting 15 22.8
2017-Jan-20 07:09 173 7 gusting 14 23.3
2017-Jan-20 06:54 190 10 gusting 15 22.8
2017-Jan-20 06:39 159 6 gusting 12 23.3
2017-Jan-20 06:24 142 6 gusting 15 23.3
2017-Jan-20 06:10 204 7 gusting 17 23.3
2017-Jan-20 05:55 193 6 gusting 16 23.3
2017-Jan-20 05:39 141 9 gusting 17 22.8
2017-Jan-20 05:24 167 8 gusting 17 22.8
2017-Jan-20 05:09 201 8 gusting 15 22.8
2017-Jan-20 04:54 165 5 gusting 13 22.2
2017-Jan-20 04:39 150 6 gusting 16 22.8
2017-Jan-20 04:24 143 5 gusting 14 22.8
2017-Jan-20 04:09 139 7 gusting 15 21.7
2017-Jan-20 03:54 211 7 gusting 14 21.7
2017-Jan-20 03:39 156 6 gusting 13 21.7
2017-Jan-20 03:24 204 9 gusting 14 21.7
2017-Jan-20 03:09 173 6 gusting 15 21.7
2017-Jan-20 02:54 148 7 gusting 19 21.7
2017-Jan-20 02:39 207 7 gusting 19 22.2
2017-Jan-20 02:24 134 7 gusting 19 21.7
2017-Jan-20 02:09 218 7 gusting 19 21.1
2017-Jan-20 01:54 190 8 gusting 19 21.1
2017-Jan-20 01:39 168 6 gusting 20 21.1
2017-Jan-20 01:24 158 12 gusting 23 21.7
2017-Jan-20 01:09 187 10 gusting 20 21.7
2017-Jan-20 00:54 201 10 gusting 16 20.0
2017-Jan-20 00:39 195 8 gusting 15 18.9
2017-Jan-20 00:24 221 6 gusting 14 18.9
2017-Jan-20 00:09 187 7 gusting 13 19.4
2017-Jan-19 23:54 184 7 gusting 14 19.4
2017-Jan-19 23:39 224 7 gusting 12 19.4
2017-Jan-19 23:24 190 6 gusting 16 19.4
2017-Jan-19 23:09 198 7 gusting 17 20.0
2017-Jan-19 22:54 207 8 gusting 14 19.4
2017-Jan-19 22:39 167 8 gusting 19 19.4
2017-Jan-19 22:24 212 9 gusting 16 20.0
2017-Jan-19 22:09 187 8 gusting 14 20.0
2017-Jan-19 21:54 218 7 gusting 15 20.0
2017-Jan-19 21:39 215 9 gusting 16 20.0
2017-Jan-19 21:24 160 9 gusting 17 20.0
2017-Jan-19 21:08 210 7 gusting 15 20.0
2017-Jan-19 20:53
2017-Jan-19 20:38
2017-Jan-19 20:23
2017-Jan-19 20:08
2017-Jan-19 19:53
2017-Jan-19 19:38
2017-Jan-19 19:23
2017-Jan-19 19:08
2017-Jan-19 18:53
2017-Jan-19 18:38
2017-Jan-19 18:23
2017-Jan-19 18:08
2017-Jan-19 17:53
2017-Jan-19 17:37
2017-Jan-19 17:22
2017-Jan-19 17:07 238 3 gusting 6 20.6
2017-Jan-19 16:52 247 3 gusting 6 20.6
2017-Jan-19 16:37 217 20.6
2017-Jan-19 16:22 215 0 gusting 3 20.6
2017-Jan-19 16:07 210 0 gusting 5 20.6
2017-Jan-19 15:52 201 3 gusting 6 20.0
2017-Jan-19 15:37 249 3 gusting 8 20.0
2017-Jan-19 15:22 165 6 gusting 11 20.0
2017-Jan-19 15:07 198 7 gusting 12 20.0
2017-Jan-19 14:52 198 9 gusting 17 20.6
2017-Jan-19 14:37 221 11 gusting 17 22.2
2017-Jan-19 14:22 283 1 gusting 4 25.0
2017-Jan-19 14:07 269 2 gusting 6 25.0
2017-Jan-19 13:52 249 4 gusting 8 25.0
2017-Jan-19 13:37 249 1 gusting 3 25.0
2017-Jan-19 13:22 257 2 gusting 4 25.0
2017-Jan-19 13:07 307 0 gusting 3 25.0
2017-Jan-19 12:52 314 2 gusting 4 25.0
2017-Jan-19 12:37 064 2 gusting 4 25.0
2017-Jan-19 12:22 039 0 gusting 5 25.0
2017-Jan-19 12:07 288 1 gusting 5 24.4
2017-Jan-19 11:52 041 1 gusting 3 24.4
2017-Jan-19 11:37 058 24.4
2017-Jan-19 11:22 072 1 gusting 2 24.4
2017-Jan-19 11:06 044 1 gusting 6 24.4
2017-Jan-19 10:52 333 4 gusting 6 24.4
2017-Jan-19 10:36 301 4 gusting 8 24.4
2017-Jan-19 10:21 309 5 gusting 13 23.9
2017-Jan-19 10:06 269 11 gusting 20 24.4
2017-Jan-19 09:51 318 15 gusting 26 24.4
2017-Jan-19 09:36 271 14 gusting 29 26.7
2017-Jan-19 09:21 255 6 gusting 10 33.3
2017-Jan-19 09:06 270 5 gusting 9 34.4
2017-Jan-19 08:51 304 4 gusting 9 35.6
2017-Jan-19 08:36 304 7 gusting 13 36.1
2017-Jan-19 08:21 322 6 gusting 13 36.1
2017-Jan-19 08:06 288 10 gusting 18 36.7
2017-Jan-19 07:51 312 9 gusting 15 37.8
2017-Jan-19 07:36 294 11 gusting 19 38.3
2017-Jan-19 07:21 318 12 gusting 16 38.9
2017-Jan-19 07:06 302 11 gusting 16 38.9
2017-Jan-19 06:51 319 13 gusting 21 39.4
2017-Jan-19 06:36 302 8 gusting 19 39.4
2017-Jan-19 06:20 290 9 gusting 17 40.6
2017-Jan-19 06:05 301 9 gusting 20 40.6
2017-Jan-19 05:50 302 11 gusting 19 40.6
2017-Jan-19 05:35 228 7 gusting 19 38.3
2017-Jan-19 05:20 304 7 gusting 18 40.0
2017-Jan-19 05:05 302 8 gusting 19 41.1
2017-Jan-19 04:50 312 13 gusting 20 41.1
2017-Jan-19 04:35 308 8 gusting 15 40.6
2017-Jan-19 04:20 311 9 gusting 16 41.1
2017-Jan-19 04:05 001 6 gusting 16 40.0
2017-Jan-19 03:51 338 10 gusting 18 39.4
2017-Jan-19 03:35 333 6 gusting 13 39.4
2017-Jan-19 03:20 338 6 gusting 12 38.9
2017-Jan-19 03:05 359 5 gusting 13 38.9
2017-Jan-19 02:50 322 7 gusting 15 38.3
2017-Jan-19 02:35 011 10 gusting 14 38.3
2017-Jan-19 02:19 333 10 gusting 13 37.8
2017-Jan-19 02:04 005 12 gusting 17 37.2
2017-Jan-19 01:49 177 3 gusting 5 33.9
2017-Jan-19 01:34 207 2 gusting 5 33.3
2017-Jan-19 01:19 135 6 gusting 7 33.9
2017-Jan-19 01:04 151 2 gusting 4 32.2
2017-Jan-19 00:49 012 1 gusting 5 31.7
2017-Jan-19 00:04 103 2 gusting 5 30.0
2017-Jan-18 23:49 167 0 gusting 4 29.4
2017-Jan-18 23:34 218 2 gusting 5 28.3
2017-Jan-18 23:19 079 0 gusting 3 28.3
2017-Jan-18 23:04 200 0 gusting 3 27.2
2017-Jan-18 22:49 210 1 gusting 3 25.6
2017-Jan-18 22:34 246 0 gusting 2 25.0
2017-Jan-18 22:19 249 0 gusting 2 25.0
2017-Jan-18 22:04 262 1 gusting 3 24.4
2017-Jan-18 21:49 240 1 gusting 4 23.9
2017-Jan-18 21:34 281 0 gusting 4 23.3
2017-Jan-18 21:19 283 0 gusting 1 22.2
2017-Jan-18 21:03 285 0 gusting 2 22.2
2017-Jan-18 20:48 294 21.7
2017-Jan-18 20:33
2017-Jan-18 20:18
2017-Jan-18 20:03
2017-Jan-18 19:48
2017-Jan-18 19:33
2017-Jan-18 19:18
2017-Jan-18 19:03 287 0 gusting 1 20.6
2017-Jan-18 18:49 263 0 gusting 1 21.1
2017-Jan-18 18:33 257 21.1
2017-Jan-18 18:18 257 21.1
2017-Jan-18 18:03 257 21.1
2017-Jan-18 17:48 255 21.1
2017-Jan-18 17:33 238 0 gusting 2 21.1
2017-Jan-18 17:18 246 1 gusting 4 21.1
2017-Jan-18 17:03 255 0 gusting 3 21.1
2017-Jan-18 16:48 227 1 gusting 4 21.1
2017-Jan-18 16:33 238 1 gusting 4 21.1
2017-Jan-18 16:18 246 0 gusting 3 21.1
2017-Jan-18 16:03 273 0 gusting 1 21.1
2017-Jan-18 15:48 273 21.1
2017-Jan-18 15:33 255 1 gusting 3 21.7
2017-Jan-18 15:17 232 2 gusting 4 21.7
2017-Jan-18 15:04 269 0 gusting 4 21.7
2017-Jan-18 14:48 238 1 gusting 4 22.2
2017-Jan-18 14:33 264 1 gusting 5 22.8
2017-Jan-18 14:19 198 2 gusting 8 23.3
2017-Jan-18 14:03 179 2 gusting 8 23.3
2017-Jan-18 13:48 221 5 gusting 9 22.8
2017-Jan-18 13:33 179 4 gusting 8 22.8
2017-Jan-18 13:18 212 6 gusting 9 22.8
2017-Jan-18 13:03 193 5 gusting 9 22.8